createdAt,value
2023-02-28T00:00:41.971Z,118.40
2023-02-28T00:03:12.837Z,121.20
2023-02-28T00:05:43.459Z,108.25
2023-02-28T00:08:13.890Z,111.00
2023-02-28T00:10:45.239Z,105.75
2023-02-28T00:13:16.221Z,98.50
2023-02-28T00:15:47.059Z,103.40
2023-02-28T00:18:18.019Z,104.00
2023-02-28T00:20:49.408Z,97.60
2023-02-28T00:23:21.001Z,82.00
2023-02-28T00:25:52.682Z,67.25
2023-02-28T00:28:24.168Z,55.50
2023-02-28T00:30:54.710Z,57.25
2023-02-28T00:33:25.752Z,53.50
2023-02-28T00:35:59.086Z,53.50
2023-02-28T00:38:29.576Z,53.50
2023-02-28T00:40:59.919Z,53.25
2023-02-28T00:43:30.772Z,55.00
2023-02-28T00:46:01.217Z,51.50
2023-02-28T00:48:32.105Z,50.50
2023-02-28T00:51:03.349Z,45.75
2023-02-28T00:53:34.327Z,46.50
2023-02-28T00:56:05.612Z,27.00
2023-02-28T00:58:36.586Z,39.50
2023-02-28T01:01:08.328Z,39.50
2023-02-28T01:03:39.042Z,42.00
2023-02-28T01:06:10.150Z,41.75
2023-02-28T01:08:40.619Z,35.50
2023-02-28T01:11:13.742Z,33.50
2023-02-28T01:13:45.972Z,42.50
2023-02-28T01:16:16.421Z,27.25
2023-02-28T01:18:47.459Z,27.50
2023-02-28T01:21:20.648Z,29.75
2023-02-28T01:23:52.161Z,29.75
2023-02-28T01:26:23.982Z,32.25
2023-02-28T01:28:54.789Z,35.75
2023-02-28T01:31:25.872Z,33.25
2023-02-28T01:33:56.333Z,28.25
2023-02-28T01:36:27.796Z,31.50
2023-02-28T01:38:58.136Z,32.25
2023-02-28T01:41:32.175Z,29.25
2023-02-28T01:44:22.595Z,34.75
2023-02-28T01:46:54.639Z,35.25
2023-02-28T01:49:26.015Z,25.25
2023-02-28T01:51:58.227Z,28.50
2023-02-28T01:54:35.471Z,39.75
2023-02-28T01:57:10.574Z,38.50
2023-02-28T01:59:44.407Z,36.00
2023-02-28T02:02:16.231Z,37.00
2023-02-28T02:04:50.377Z,33.75
2023-02-28T02:07:22.993Z,34.00
2023-02-28T02:10:02.391Z,34.75
2023-02-28T02:12:54.385Z,31.75
2023-02-28T02:15:36.205Z,26.75
2023-02-28T02:18:09.565Z,31.75
2023-02-28T02:20:55.420Z,28.75
2023-02-28T02:23:35.861Z,32.50
2023-02-28T02:26:24.901Z,30.00
2023-02-28T02:29:03.834Z,24.75
2023-02-28T02:31:55.309Z,26.50
2023-02-28T02:34:41.236Z,15.75
2023-02-28T02:37:19.507Z,34.25
2023-02-28T02:40:01.372Z,29.50
2023-02-28T02:42:46.568Z,33.75
2023-02-28T02:45:37.812Z,27.25
2023-02-28T02:48:11.724Z,26.50
2023-02-28T02:50:45.019Z,28.25
2023-02-28T02:53:18.339Z,33.25
2023-02-28T02:55:52.698Z,32.00
2023-02-28T02:58:26.002Z,35.25
2023-02-28T03:00:59.502Z,30.50
2023-02-28T03:03:32.398Z,35.00
2023-02-28T03:06:04.116Z,34.50
2023-02-28T03:08:39.450Z,30.75
2023-02-28T03:11:15.356Z,33.00
2023-02-28T03:14:06.376Z,31.00
2023-02-28T03:17:02.991Z,30.25
2023-02-28T03:20:04.224Z,26.00
2023-02-28T03:22:38.488Z,27.50
2023-02-28T03:25:29.803Z,27.00
2023-02-28T03:28:33.530Z,27.25
2023-02-28T03:34:22.509Z,34.75
2023-02-28T03:36:56.142Z,28.25
2023-02-28T03:39:38.522Z,17.50
2023-02-28T03:42:35.165Z,22.25
2023-02-28T03:48:12.809Z,34.25
2023-02-28T03:50:47.166Z,36.75
2023-02-28T03:53:26.208Z,27.75
2023-02-28T03:55:59.738Z,26.75
2023-02-28T03:58:56.993Z,24.75
2023-02-28T04:01:31.585Z,28.00
2023-02-28T04:04:02.971Z,25.00
2023-02-28T04:06:35.764Z,41.75
2023-02-28T04:09:07.887Z,38.50
2023-02-28T04:11:41.526Z,28.00
2023-02-28T04:14:13.242Z,26.50
2023-02-28T04:16:44.232Z,22.50
2023-02-28T04:19:15.515Z,27.75
2023-02-28T04:21:49.153Z,25.25
2023-02-28T04:24:40.405Z,36.50
2023-02-28T04:27:11.255Z,28.00
2023-02-28T04:29:44.680Z,23.75
2023-02-28T04:32:15.913Z,23.50
2023-02-28T04:34:46.889Z,22.75
2023-02-28T04:37:18.172Z,29.00
2023-02-28T04:39:51.055Z,29.00
2023-02-28T04:42:24.378Z,22.00
2023-02-28T04:44:57.745Z,33.25
2023-02-28T04:47:28.383Z,26.75
2023-02-28T04:50:00.047Z,23.25
2023-02-28T04:52:31.114Z,17.25
2023-02-28T04:55:01.945Z,21.25
2023-02-28T04:57:34.144Z,23.00
2023-02-28T05:00:05.160Z,23.75
2023-02-28T05:02:39.461Z,23.50
2023-02-28T05:05:12.474Z,16.50
2023-02-28T05:07:46.041Z,27.25
2023-02-28T05:10:16.459Z,24.25
2023-02-28T05:12:48.983Z,26.75
2023-02-28T05:15:20.959Z,23.50
2023-02-28T05:17:52.946Z,23.00
2023-02-28T05:20:23.341Z,24.25
2023-02-28T05:22:53.784Z,27.25
2023-02-28T05:25:24.327Z,20.50
2023-02-28T05:27:58.030Z,23.25
2023-02-28T05:30:28.820Z,17.00
2023-02-28T05:32:59.862Z,16.75
2023-02-28T05:35:30.475Z,18.25
2023-02-28T05:38:01.920Z,22.50
2023-02-28T05:40:32.361Z,15.00
2023-02-28T05:43:03.520Z,22.50
2023-02-28T05:45:57.257Z,24.00
2023-02-28T05:48:31.876Z,16.75
2023-02-28T05:51:02.994Z,23.00
2023-02-28T05:53:34.948Z,22.00
2023-02-28T05:56:06.350Z,23.25
2023-02-28T06:01:44.007Z,27.75
2023-02-28T06:04:30.350Z,23.50
2023-02-28T06:06:49.313Z,28.50
2023-02-28T06:09:20.139Z,28.75
2023-02-28T06:11:50.875Z,26.00
2023-02-28T06:14:21.787Z,27.75
2023-02-28T06:16:53.131Z,21.50
2023-02-28T06:19:24.766Z,30.50
2023-02-28T06:21:57.157Z,24.50
2023-02-28T06:24:28.667Z,29.67
2023-02-28T06:26:59.293Z,22.75
2023-02-28T06:29:30.138Z,26.50
2023-02-28T06:32:00.659Z,27.00
2023-02-28T06:34:31.063Z,31.75
2023-02-28T06:37:01.982Z,24.25
2023-02-28T06:39:33.326Z,29.25
2023-02-28T06:42:04.559Z,28.25
2023-02-28T06:44:35.286Z,29.25
2023-02-28T06:47:08.678Z,23.25
2023-02-28T06:49:55.487Z,19.50
2023-02-28T06:52:26.479Z,28.00
2023-02-28T06:54:56.930Z,29.00
2023-02-28T06:57:35.357Z,21.75
2023-02-28T07:00:10.990Z,23.75
2023-02-28T07:02:41.409Z,19.75
2023-02-28T07:05:13.529Z,26.75
2023-02-28T07:07:44.480Z,29.50
2023-02-28T07:10:19.086Z,30.75
2023-02-28T07:12:48.127Z,31.50
2023-02-28T07:15:18.675Z,33.25
2023-02-28T07:17:49.093Z,39.50
2023-02-28T07:20:20.126Z,35.75
2023-02-28T07:22:52.776Z,37.75
2023-02-28T07:28:20.916Z,36.25
2023-02-28T07:30:51.447Z,33.75
2023-02-28T07:33:23.028Z,36.75
2023-02-28T07:35:57.509Z,24.00
2023-02-28T07:38:28.157Z,29.25
2023-02-28T07:40:59.121Z,30.00
2023-02-28T07:43:29.570Z,33.25
2023-02-28T07:46:08.307Z,30.75
2023-02-28T07:48:39.385Z,25.75
2023-02-28T07:51:10.850Z,26.00
2023-02-28T07:53:41.809Z,17.50
2023-02-28T07:56:12.152Z,16.50
2023-02-28T07:58:42.482Z,21.75
2023-02-28T08:01:19.397Z,26.00
2023-02-28T08:03:49.818Z,25.50
2023-02-28T08:06:25.602Z,29.75
2023-02-28T08:08:59.393Z,19.75
2023-02-28T08:11:31.198Z,20.75
2023-02-28T08:14:02.876Z,20.25
2023-02-28T08:16:35.743Z,13.00
2023-02-28T08:19:09.156Z,19.75
2023-02-28T08:21:39.733Z,22.50
2023-02-28T08:24:11.440Z,2.00
2023-02-28T08:26:43.279Z,14.50
2023-02-28T08:29:14.982Z,13.75
2023-02-28T08:31:45.619Z,18.50
2023-02-28T08:34:17.415Z,14.75
2023-02-28T08:36:51.144Z,18.00
2023-02-28T08:39:22.211Z,13.00
2023-02-28T08:42:02.110Z,15.00
2023-02-28T08:44:29.640Z,14.50
2023-02-28T08:47:03.378Z,17.25
2023-02-28T08:49:35.928Z,10.75
2023-02-28T08:52:07.974Z,15.75
2023-02-28T08:54:43.238Z,13.00
2023-02-28T08:57:17.115Z,20.00
2023-02-28T08:59:58.335Z,14.50
2023-02-28T09:02:39.437Z,19.50
2023-02-28T09:05:09.592Z,19.00
2023-02-28T09:07:40.711Z,15.50
2023-02-28T09:10:12.146Z,17.50
2023-02-28T09:12:42.637Z,15.00
2023-02-28T09:15:20.920Z,18.50
2023-02-28T09:18:04.120Z,14.50
2023-02-28T09:20:35.344Z,13.25
2023-02-28T09:23:05.694Z,15.50
2023-02-28T09:25:36.919Z,15.00
2023-02-28T09:28:07.835Z,11.25
2023-02-28T09:30:38.672Z,16.00
2023-02-28T09:33:21.115Z,16.00
2023-02-28T09:35:52.851Z,14.75
2023-02-28T09:38:23.850Z,12.50
2023-02-28T09:41:15.246Z,14.75
2023-02-28T09:46:49.712Z,13.00
2023-02-28T09:49:23.295Z,18.25
2023-02-28T09:52:08.772Z,17.00
2023-02-28T09:54:40.401Z,18.50
2023-02-28T09:57:32.687Z,15.00
2023-02-28T10:00:19.103Z,13.25
2023-02-28T10:02:56.149Z,14.25
2023-02-28T10:05:30.045Z,14.75
2023-02-28T10:08:39.661Z,9.00
2023-02-28T10:11:14.892Z,13.75
2023-02-28T10:13:49.184Z,13.00
2023-02-28T10:16:25.225Z,16.50
2023-02-28T10:19:10.103Z,15.25
2023-02-28T10:21:52.773Z,13.75
2023-02-28T10:24:28.555Z,13.75
2023-02-28T10:27:05.166Z,11.50
2023-02-28T10:29:35.959Z,9.75
2023-02-28T10:32:07.202Z,13.75
2023-02-28T10:34:39.031Z,12.50
2023-02-28T10:37:10.417Z,15.00
2023-02-28T10:39:46.623Z,15.25
2023-02-28T10:42:26.107Z,16.50
2023-02-28T10:45:17.576Z,12.00
2023-02-28T10:48:00.197Z,15.75
2023-02-28T10:50:54.757Z,12.25
2023-02-28T10:53:36.164Z,13.25
2023-02-28T10:56:14.506Z,12.75
2023-02-28T10:58:56.067Z,14.00
2023-02-28T11:01:35.598Z,11.00
2023-02-28T11:04:32.740Z,12.50
2023-02-28T11:07:27.803Z,8.50
2023-02-28T11:10:02.202Z,13.00
2023-02-28T11:12:50.863Z,8.75
2023-02-28T11:15:30.728Z,9.25
2023-02-28T11:18:04.135Z,10.50
2023-02-28T11:20:36.918Z,9.50
2023-02-28T11:23:10.409Z,8.50
2023-02-28T11:25:46.422Z,9.00
2023-02-28T11:28:31.981Z,10.25
2023-02-28T11:31:25.357Z,13.75
2023-02-28T11:33:55.435Z,10.00
2023-02-28T11:36:32.175Z,14.00
2023-02-28T11:39:05.818Z,14.75
2023-02-28T11:41:42.470Z,12.75
2023-02-28T11:44:42.528Z,13.00
2023-02-28T11:47:19.992Z,10.75
2023-02-28T11:49:59.348Z,13.75
2023-02-28T11:52:38.813Z,12.25
2023-02-28T11:55:31.870Z,10.75
2023-02-28T11:58:08.474Z,14.75
2023-02-28T12:01:04.221Z,13.75
2023-02-28T12:03:47.511Z,15.00
2023-02-28T12:06:23.265Z,23.25
2023-02-28T12:08:56.694Z,12.75
2023-02-28T12:11:53.599Z,8.00
2023-02-28T12:14:29.927Z,9.75
2023-02-28T12:17:24.923Z,12.75
2023-02-28T12:20:13.958Z,13.00
2023-02-28T12:22:51.497Z,14.50
2023-02-28T12:25:52.260Z,17.75
2023-02-28T12:28:34.191Z,14.50
2023-02-28T12:31:10.260Z,13.50
2023-02-28T12:33:44.162Z,16.00
2023-02-28T12:36:18.508Z,16.50
2023-02-28T12:39:01.372Z,12.00
2023-02-28T12:41:51.770Z,13.00
2023-02-28T12:44:35.347Z,9.00
2023-02-28T12:47:08.623Z,13.50
2023-02-28T12:50:04.874Z,9.75
2023-02-28T12:52:40.971Z,8.75
2023-02-28T12:55:38.175Z,13.75
2023-02-28T12:58:46.084Z,13.75
2023-02-28T13:01:33.919Z,9.50
2023-02-28T13:04:29.669Z,12.25
2023-02-28T13:07:05.812Z,13.00
2023-02-28T13:09:42.937Z,9.00
2023-02-28T13:12:17.569Z,9.25
2023-02-28T13:14:48.640Z,9.75
2023-02-28T13:17:29.366Z,9.00
2023-02-28T13:20:01.474Z,9.25
2023-02-28T13:22:41.039Z,16.75
2023-02-28T13:25:36.047Z,10.75
2023-02-28T13:28:14.723Z,9.50
2023-02-28T13:30:57.332Z,10.00
2023-02-28T13:33:33.253Z,11.00
2023-02-28T13:36:17.954Z,11.50
2023-02-28T13:38:56.542Z,15.75
2023-02-28T13:41:47.090Z,14.25
2023-02-28T13:44:23.757Z,13.50
2023-02-28T13:46:56.950Z,14.25
2023-02-28T13:49:33.565Z,16.75
2023-02-28T13:52:10.430Z,11.50
2023-02-28T13:54:55.638Z,9.25
2023-02-28T13:57:45.934Z,8.50
2023-02-28T14:00:41.259Z,18.00
2023-02-28T14:03:20.434Z,15.25
2023-02-28T14:06:11.653Z,15.50
2023-02-28T14:08:44.919Z,16.25
2023-02-28T14:11:36.592Z,15.75
2023-02-28T14:14:29.950Z,18.00
2023-02-28T14:17:00.509Z,19.00
2023-02-28T14:19:35.073Z,21.00
2023-02-28T14:22:08.838Z,19.25
2023-02-28T14:24:51.152Z,27.75
2023-02-28T14:27:41.520Z,26.50
2023-02-28T14:30:36.684Z,26.75
2023-02-28T14:33:23.888Z,28.25
2023-02-28T14:36:15.092Z,30.25
2023-02-28T14:38:51.289Z,34.25
2023-02-28T14:41:27.427Z,32.25
2023-02-28T14:44:07.469Z,33.75
2023-02-28T14:46:42.895Z,26.00
2023-02-28T14:49:22.119Z,29.50
2023-02-28T14:52:04.714Z,15.00
2023-02-28T14:54:36.135Z,23.25
2023-02-28T14:57:07.232Z,20.50
2023-02-28T14:59:38.070Z,18.75
2023-02-28T15:02:27.390Z,18.00
2023-02-28T15:05:03.847Z,20.25
2023-02-28T15:07:34.866Z,21.75
2023-02-28T15:10:25.054Z,18.50
2023-02-28T15:16:08.032Z,18.50
2023-02-28T15:18:53.233Z,25.25
2023-02-28T15:21:32.024Z,23.75
2023-02-28T15:24:24.637Z,24.50
2023-02-28T15:27:01.660Z,27.50
2023-02-28T15:29:35.073Z,26.50
2023-02-28T15:32:10.497Z,22.00
2023-02-28T15:34:44.896Z,27.25
2023-02-28T15:37:34.297Z,25.50
2023-02-28T15:40:11.045Z,25.25
2023-02-28T15:42:42.050Z,32.00
2023-02-28T15:45:39.851Z,28.50
2023-02-28T15:48:41.392Z,23.50
2023-02-28T15:51:12.027Z,35.50
2023-02-28T15:54:01.824Z,28.00
2023-02-28T15:56:35.350Z,30.50
2023-02-28T15:59:08.134Z,32.50
2023-02-28T16:01:40.465Z,34.50
2023-02-28T16:04:19.620Z,27.50
2023-02-28T16:07:06.308Z,32.00
2023-02-28T16:09:36.920Z,38.50
2023-02-28T16:12:09.153Z,30.75
2023-02-28T16:14:50.439Z,41.25
2023-02-28T16:20:35.017Z,33.00
2023-02-28T16:23:15.530Z,35.00
2023-02-28T16:25:48.952Z,33.25
2023-02-28T16:28:31.364Z,35.75
2023-02-28T16:31:04.795Z,33.00
2023-02-28T16:33:38.004Z,35.25
2023-02-28T16:36:10.225Z,26.75
2023-02-28T16:38:40.982Z,35.75
2023-02-28T16:44:07.720Z,37.75
2023-02-28T16:46:38.761Z,32.00
2023-02-28T16:49:12.296Z,39.50
2023-02-28T16:51:44.409Z,42.00
2023-02-28T16:54:15.080Z,42.00
2023-02-28T16:56:48.230Z,41.00
2023-02-28T16:59:31.116Z,34.00
2023-02-28T17:02:01.755Z,38.25
2023-02-28T17:04:35.432Z,35.50
2023-02-28T17:07:11.471Z,33.00
2023-02-28T17:09:45.455Z,28.50
2023-02-28T17:12:15.633Z,31.50
2023-02-28T17:15:23.691Z,22.50
2023-02-28T17:17:52.790Z,25.50
2023-02-28T17:20:26.401Z,24.25
2023-02-28T17:23:03.205Z,22.75
2023-02-28T17:25:34.385Z,28.25
2023-02-28T17:28:05.612Z,22.75
2023-02-28T17:37:19.450Z,34.00
2023-02-28T17:39:10.747Z,32.50
2023-02-28T17:41:48.254Z,21.75
2023-02-28T17:44:23.092Z,25.00
2023-02-28T17:47:01.605Z,30.50
2023-02-28T17:49:48.618Z,27.00
2023-02-28T17:52:27.095Z,27.25
2023-02-28T17:55:00.017Z,25.75
2023-02-28T17:57:32.107Z,21.25
2023-02-28T18:00:04.820Z,30.50
2023-02-28T18:02:59.996Z,26.00
2023-02-28T18:05:36.549Z,32.00
2023-02-28T18:10:56.116Z,29.00
2023-02-28T18:13:29.162Z,28.75
2023-02-28T18:16:07.136Z,40.50
2023-02-28T18:18:45.833Z,39.75
2023-02-28T18:21:21.746Z,42.75
2023-02-28T18:23:58.811Z,35.00
2023-02-28T18:35:44.730Z,44.50
2023-02-28T18:38:19.802Z,42.75
2023-02-28T18:40:56.209Z,47.50
2023-02-28T18:43:30.511Z,45.25
2023-02-28T18:48:57.081Z,39.75
2023-02-28T18:51:31.737Z,41.75
2023-02-28T18:54:06.408Z,44.00
2023-02-28T18:56:40.662Z,40.50
2023-02-28T18:59:12.975Z,42.50
2023-02-28T19:01:46.557Z,43.00
2023-02-28T19:04:16.991Z,38.50
2023-02-28T19:06:53.462Z,41.50
2023-02-28T19:09:31.142Z,35.00
2023-02-28T19:12:05.104Z,36.00
2023-02-28T19:20:40.263Z,40.50
2023-02-28T19:23:14.971Z,35.00
2023-02-28T19:25:53.164Z,47.00
2023-02-28T19:28:51.363Z,46.25
2023-02-28T19:31:52.553Z,49.50
2023-02-28T19:34:27.793Z,45.25
2023-02-28T19:40:10.562Z,44.00
2023-02-28T19:42:56.556Z,42.50
2023-02-28T19:48:25.655Z,33.00
2023-02-28T19:51:02.032Z,45.00
2023-02-28T19:53:36.725Z,43.25
2023-02-28T19:56:26.060Z,46.75
2023-02-28T19:59:00.659Z,49.00
2023-02-28T20:01:32.943Z,48.00
2023-02-28T20:04:09.273Z,38.75
2023-02-28T20:06:41.819Z,36.00
2023-02-28T20:09:15.797Z,44.00
2023-02-28T20:11:48.973Z,56.50
2023-02-28T20:14:31.261Z,54.50
2023-02-28T20:17:04.997Z,48.50
2023-02-28T20:19:40.783Z,45.00
2023-02-28T20:22:17.401Z,42.25
2023-02-28T20:24:54.435Z,53.00
2023-02-28T20:27:31.787Z,49.50
2023-02-28T20:30:07.230Z,47.00
2023-02-28T20:32:39.916Z,45.25
2023-02-28T20:35:25.455Z,53.75
2023-02-28T20:38:01.868Z,55.25
2023-02-28T20:40:33.414Z,46.50
2023-02-28T20:43:08.206Z,44.25
2023-02-28T20:46:23.204Z,44.25
2023-02-28T20:49:02.780Z,49.50
2023-02-28T20:51:44.133Z,42.75
2023-02-28T20:57:12.886Z,59.50
2023-02-28T20:59:49.051Z,56.25
2023-02-28T21:02:52.199Z,56.50
2023-02-28T21:04:54.799Z,66.00
2023-02-28T21:08:04.665Z,52.75
2023-02-28T21:10:42.143Z,55.50
2023-02-28T21:13:22.981Z,53.50
2023-02-28T21:16:16.316Z,50.25
2023-02-28T21:18:48.229Z,57.25
2023-02-28T21:21:21.352Z,58.00
2023-02-28T21:23:54.476Z,33.00
2023-02-28T21:26:26.172Z,55.75
2023-02-28T21:29:01.244Z,30.50
2023-02-28T21:31:38.463Z,29.50
2023-02-28T21:34:09.164Z,32.75
2023-02-28T21:36:43.175Z,31.25
2023-02-28T21:39:19.814Z,23.25
2023-02-28T21:41:53.075Z,25.50
2023-02-28T21:44:26.520Z,27.00
2023-02-28T21:46:57.582Z,25.25
2023-02-28T21:49:30.355Z,27.25
2023-02-28T21:52:02.636Z,24.75
2023-02-28T21:54:36.218Z,22.50
2023-02-28T21:57:06.799Z,27.25
2023-02-28T21:59:38.526Z,25.75
2023-02-28T22:02:11.348Z,23.50
2023-02-28T22:04:41.672Z,29.00
2023-02-28T22:07:12.509Z,21.75
2023-02-28T22:09:57.083Z,21.50
2023-02-28T22:12:30.409Z,23.50
2023-02-28T22:15:00.705Z,23.50
2023-02-28T22:17:34.973Z,26.50
2023-02-28T22:20:06.072Z,26.75
2023-02-28T22:22:39.574Z,24.00
2023-02-28T22:25:10.443Z,26.50
2023-02-28T22:30:39.225Z,28.50
2023-02-28T22:33:11.189Z,25.50
2023-02-28T22:35:42.383Z,25.25
2023-02-28T22:38:22.777Z,29.25
2023-02-28T22:41:02.397Z,11.25
2023-02-28T22:43:37.689Z,26.00
2023-02-28T22:46:10.889Z,25.75
2023-02-28T22:48:41.879Z,21.25
2023-02-28T22:51:15.230Z,24.50
2023-02-28T22:53:51.828Z,22.50
2023-02-28T22:56:27.318Z,21.25
2023-02-28T22:59:02.274Z,21.50
2023-02-28T23:01:41.867Z,25.00
2023-02-28T23:04:18.390Z,32.25
2023-02-28T23:06:48.631Z,26.25
2023-02-28T23:09:23.338Z,22.75
2023-02-28T23:15:12.491Z,20.00
2023-02-28T23:17:45.941Z,16.00
2023-02-28T23:20:19.337Z,19.75
2023-02-28T23:22:49.792Z,25.75
2023-02-28T23:25:21.651Z,22.75
2023-02-28T23:27:51.936Z,21.25
2023-02-28T23:30:25.553Z,22.75
2023-02-28T23:32:55.818Z,16.00
2023-02-28T23:35:26.861Z,23.00
2023-02-28T23:37:58.203Z,18.25
2023-02-28T23:40:28.937Z,19.75
2023-02-28T23:42:59.972Z,19.75
2023-02-28T23:45:30.414Z,22.75
2023-02-28T23:48:01.820Z,17.00
2023-02-28T23:50:32.448Z,21.75
2023-02-28T23:53:02.901Z,20.25
2023-02-28T23:55:33.319Z,17.25
2023-02-28T23:58:03.781Z,20.00
